sensor_id;sensor_type;location;lat;lon;timestamp;pressure;altitude;pressure_sealevel;temperature;humidity
5595;BME280;1003;48.002;7.788;2023-08-17T00:00:08;99120.88;;;20.20;100.00
5595;BME280;1003;48.002;7.788;2023-08-17T00:02:38;99131.31;;;20.15;100.00
5595;BME280;1003;48.002;7.788;2023-08-17T00:05:06;99128.00;;;20.13;100.00
5595;BME280;1003;48.002;7.788;2023-08-17T00:07:36;99123.13;;;20.09;100.00
5595;BME280;1003;48.002;7.788;2023-08-17T00:10:04;99133.56;;;20.04;100.00
5595;BME280;1003;48.002;7.788;2023-08-17T00:12:31;99134.38;;;20.05;100.00
5595;BME280;1003;48.002;7.788;2023-08-17T00:14:58;99140.47;;;20.02;100.00
5595;BME280;1003;48.002;7.788;2023-08-17T00:17:27;99144.72;;;20.02;100.00
5595;BME280;1003;48.002;7.788;2023-08-17T00:19:55;99146.72;;;19.97;100.00
5595;BME280;1003;48.002;7.788;2023-08-17T00:22:22;99162.06;;;19.95;100.00
5595;BME280;1003;48.002;7.788;2023-08-17T00:24:51;99155.53;;;19.89;100.00
5595;BME280;1003;48.002;7.788;2023-08-17T00:27:18;99155.63;;;19.88;100.00
5595;BME280;1003;48.002;7.788;2023-08-17T00:29:45;99157.50;;;19.84;100.00
5595;BME280;1003;48.002;7.788;2023-08-17T00:32:12;99154.03;;;19.85;100.00
5595;BME280;1003;48.002;7.788;2023-08-17T00:34:39;99154.19;;;19.82;100.00
5595;BME280;1003;48.002;7.788;2023-08-17T00:37:06;99149.03;;;19.84;100.00
5595;BME280;1003;48.002;7.788;2023-08-17T00:39:33;99145.66;;;19.83;100.00
5595;BME280;1003;48.002;7.788;2023-08-17T00:42:02;99143.31;;;19.79;100.00
5595;BME280;1003;48.002;7.788;2023-08-17T00:44:29;99141.66;;;19.78;100.00
5595;BME280;1003;48.002;7.788;2023-08-17T00:46:56;99148.56;;;19.76;100.00
5595;BME280;1003;48.002;7.788;2023-08-17T00:49:23;99154.72;;;19.72;100.00
5595;BME280;1003;48.002;7.788;2023-08-17T00:51:51;99155.63;;;19.71;100.00
5595;BME280;1003;48.002;7.788;2023-08-17T00:54:24;99159.00;;;19.71;100.00
5595;BME280;1003;48.002;7.788;2023-08-17T00:56:53;99158.38;;;19.66;100.00
5595;BME280;1003;48.002;7.788;2023-08-17T00:59:23;99156.78;;;19.63;100.00
5595;BME280;1003;48.002;7.788;2023-08-17T01:01:50;99159.50;;;19.60;100.00
5595;BME280;1003;48.002;7.788;2023-08-17T01:04:17;99165.50;;;19.59;100.00
5595;BME280;1003;48.002;7.788;2023-08-17T01:06:44;99162.16;;;19.57;100.00
5595;BME280;1003;48.002;7.788;2023-08-17T01:09:11;99175.81;;;19.56;100.00
5595;BME280;1003;48.002;7.788;2023-08-17T01:11:49;99179.09;;;19.58;100.00
5595;BME280;1003;48.002;7.788;2023-08-17T01:14:27;99187.03;;;19.52;100.00
5595;BME280;1003;48.002;7.788;2023-08-17T01:17:06;99191.53;;;19.47;100.00
5595;BME280;1003;48.002;7.788;2023-08-17T01:19:36;99201.88;;;19.44;100.00
5595;BME280;1003;48.002;7.788;2023-08-17T01:22:05;99201.19;;;19.40;100.00
5595;BME280;1003;48.002;7.788;2023-08-17T01:24:36;99199.47;;;19.41;100.00
5595;BME280;1003;48.002;7.788;2023-08-17T01:27:03;99220.00;;;19.38;100.00
5595;BME280;1003;48.002;7.788;2023-08-17T01:29:30;99229.38;;;19.37;100.00
5595;BME280;1003;48.002;7.788;2023-08-17T01:32:10;99228.53;;;19.37;100.00
5595;BME280;1003;48.002;7.788;2023-08-17T01:34:44;99255.97;;;19.32;100.00
5595;BME280;1003;48.002;7.788;2023-08-17T01:37:18;99246.81;;;19.28;100.00
5595;BME280;1003;48.002;7.788;2023-08-17T01:39:53;99243.44;;;19.27;100.00
5595;BME280;1003;48.002;7.788;2023-08-17T01:42:23;99261.13;;;19.30;100.00
5595;BME280;1003;48.002;7.788;2023-08-17T01:44:51;99267.88;;;19.31;100.00
5595;BME280;1003;48.002;7.788;2023-08-17T01:47:21;99273.75;;;19.33;100.00
5595;BME280;1003;48.002;7.788;2023-08-17T01:49:48;99276.22;;;19.35;100.00
5595;BME280;1003;48.002;7.788;2023-08-17T01:52:15;99276.97;;;19.37;100.00
5595;BME280;1003;48.002;7.788;2023-08-17T01:54:42;99282.06;;;19.37;100.00
5595;BME280;1003;48.002;7.788;2023-08-17T01:57:10;99293.03;;;19.39;100.00
5595;BME280;1003;48.002;7.788;2023-08-17T01:59:37;99292.13;;;19.40;100.00
5595;BME280;1003;48.002;7.788;2023-08-17T02:02:04;99288.84;;;19.38;100.00
5595;BME280;1003;48.002;7.788;2023-08-17T02:04:31;99282.13;;;19.35;100.00
5595;BME280;1003;48.002;7.788;2023-08-17T02:06:58;99278.84;;;19.33;100.00
5595;BME280;1003;48.002;7.788;2023-08-17T02:09:28;99278.84;;;19.33;100.00
5595;BME280;1003;48.002;7.788;2023-08-17T02:11:55;99288.47;;;19.27;100.00
5595;BME280;1003;48.002;7.788;2023-08-17T02:14:23;99281.16;;;19.19;100.00
5595;BME280;1003;48.002;7.788;2023-08-17T02:16:52;99278.59;;;19.19;100.00
5595;BME280;1003;48.002;7.788;2023-08-17T02:19:19;99284.69;;;19.17;100.00
5595;BME280;1003;48.002;7.788;2023-08-17T02:21:46;99292.50;;;19.12;100.00
5595;BME280;1003;48.002;7.788;2023-08-17T02:24:13;99286.72;;;19.08;100.00
5595;BME280;1003;48.002;7.788;2023-08-17T02:26:40;99297.06;;;19.05;100.00
5595;BME280;1003;48.002;7.788;2023-08-17T02:29:07;99297.88;;;19.06;100.00
5595;BME280;1003;48.002;7.788;2023-08-17T02:31:35;99308.00;;;19.07;100.00
5595;BME280;1003;48.002;7.788;2023-08-17T02:34:02;99306.34;;;19.06;100.00
5595;BME280;1003;48.002;7.788;2023-08-17T02:36:31;99312.19;;;19.08;100.00
5595;BME280;1003;48.002;7.788;2023-08-17T02:38:58;99347.03;;;19.08;100.00
5595;BME280;1003;48.002;7.788;2023-08-17T02:41:25;99360.50;;;19.11;100.00
5595;BME280;1003;48.002;7.788;2023-08-17T02:43:52;99374.13;;;19.10;100.00
5595;BME280;1003;48.002;7.788;2023-08-17T02:46:19;99385.06;;;19.12;100.00
5595;BME280;1003;48.002;7.788;2023-08-17T02:48:47;99399.34;;;19.17;100.00
5595;BME280;1003;48.002;7.788;2023-08-17T02:51:15;99415.19;;;19.23;100.00
5595;BME280;1003;48.002;7.788;2023-08-17T02:53:42;99422.66;;;19.28;100.00
5595;BME280;1003;48.002;7.788;2023-08-17T02:56:09;99421.66;;;19.32;100.00
5595;BME280;1003;48.002;7.788;2023-08-17T02:58:37;99430.78;;;19.36;100.00
5595;BME280;1003;48.002;7.788;2023-08-17T03:01:06;99434.16;;;19.36;100.00
5595;BME280;1003;48.002;7.788;2023-08-17T03:03:33;99435.06;;;19.35;100.00
5595;BME280;1003;48.002;7.788;2023-08-17T03:06:02;99434.75;;;19.43;100.00
5595;BME280;1003;48.002;7.788;2023-08-17T03:08:29;99435.63;;;19.42;100.00
5595;BME280;1003;48.002;7.788;2023-08-17T03:10:56;99438.97;;;19.44;100.00
5595;BME280;1003;48.002;7.788;2023-08-17T03:13:23;99432.97;;;19.45;100.00
5595;BME280;1003;48.002;7.788;2023-08-17T03:15:50;99438.13;;;19.44;100.00
5595;BME280;1003;48.002;7.788;2023-08-17T03:18:17;99434.75;;;19.43;100.00
5595;BME280;1003;48.002;7.788;2023-08-17T03:20:45;99436.41;;;19.44;100.00
5595;BME280;1003;48.002;7.788;2023-08-17T03:23:13;99440.69;;;19.44;100.00
5595;BME280;1003;48.002;7.788;2023-08-17T03:25:40;99449.00;;;19.47;100.00
5595;BME280;1003;48.002;7.788;2023-08-17T03:28:07;99441.59;;;19.43;100.00
5595;BME280;1003;48.002;7.788;2023-08-17T03:30:34;99451.78;;;19.43;100.00
5595;BME280;1003;48.002;7.788;2023-08-17T03:33:01;99450.72;;;19.47;100.00
5595;BME280;1003;48.002;7.788;2023-08-17T03:35:28;99453.25;;;19.48;100.00
5595;BME280;1003;48.002;7.788;2023-08-17T03:37:55;99451.50;;;19.49;100.00
5595;BME280;1003;48.002;7.788;2023-08-17T03:40:24;99458.34;;;19.48;100.00
5595;BME280;1003;48.002;7.788;2023-08-17T03:42:51;99463.22;;;19.53;100.00
5595;BME280;1003;48.002;7.788;2023-08-17T03:45:18;99474.06;;;19.58;100.00
5595;BME280;1003;48.002;7.788;2023-08-17T03:47:45;99469.84;;;19.57;100.00
5595;BME280;1003;48.002;7.788;2023-08-17T03:50:12;99468.94;;;19.59;100.00
5595;BME280;1003;48.002;7.788;2023-08-17T03:52:39;99479.00;;;19.62;100.00
5595;BME280;1003;48.002;7.788;2023-08-17T03:55:07;99472.06;;;19.66;100.00
5595;BME280;1003;48.002;7.788;2023-08-17T03:57:35;99472.81;;;19.68;100.00
5595;BME280;1003;48.002;7.788;2023-08-17T04:00:03;99477.09;;;19.67;100.00
5595;BME280;1003;48.002;7.788;2023-08-17T04:02:31;99472.13;;;19.64;100.00
5595;BME280;1003;48.002;7.788;2023-08-17T04:04:58;99471.50;;;19.59;100.00
5595;BME280;1003;48.002;7.788;2023-08-17T04:07:25;99471.56;;;19.56;100.00
5595;BME280;1003;48.002;7.788;2023-08-17T04:09:52;99476.59;;;19.59;100.00
5595;BME280;1003;48.002;7.788;2023-08-17T04:12:19;99473.91;;;19.62;100.00
5595;BME280;1003;48.002;7.788;2023-08-17T04:14:47;99469.63;;;19.63;100.00
5595;BME280;1003;48.002;7.788;2023-08-17T04:17:14;99472.16;;;19.63;100.00
5595;BME280;1003;48.002;7.788;2023-08-17T04:19:41;99471.34;;;19.62;100.00
5595;BME280;1003;48.002;7.788;2023-08-17T04:22:08;99469.63;;;19.63;100.00
5595;BME280;1003;48.002;7.788;2023-08-17T04:24:35;99466.06;;;19.67;100.00
5595;BME280;1003;48.002;7.788;2023-08-17T04:27:03;99470.13;;;19.71;100.00
5595;BME280;1003;48.002;7.788;2023-08-17T04:29:31;99462.41;;;19.73;100.00
5595;BME280;1003;48.002;7.788;2023-08-17T04:31:59;99452.91;;;19.76;100.00
5595;BME280;1003;48.002;7.788;2023-08-17T04:34:27;99453.75;;;19.77;100.00
5595;BME280;1003;48.002;7.788;2023-08-17T04:36:54;99443.81;;;19.71;100.00
5595;BME280;1003;48.002;7.788;2023-08-17T04:39:21;99431.72;;;19.74;100.00
5595;BME280;1003;48.002;7.788;2023-08-17T04:41:48;99415.47;;;19.77;100.00
5595;BME280;1003;48.002;7.788;2023-08-17T04:44:15;99418.03;;;19.77;100.00
5595;BME280;1003;48.002;7.788;2023-08-17T04:46:42;99413.94;;;19.73;100.00
5595;BME280;1003;48.002;7.788;2023-08-17T04:49:10;99414.34;;;19.63;100.00
5595;BME280;1003;48.002;7.788;2023-08-17T04:51:37;99412.19;;;19.54;100.00
5595;BME280;1003;48.002;7.788;2023-08-17T04:54:04;99420.03;;;19.50;100.00
5595;BME280;1003;48.002;7.788;2023-08-17T04:56:31;99427.13;;;19.43;100.00
5595;BME280;1003;48.002;7.788;2023-08-17T04:58:58;99438.97;;;19.44;100.00
5595;BME280;1003;48.002;7.788;2023-08-17T05:01:25;99438.13;;;19.44;100.00
5595;BME280;1003;48.002;7.788;2023-08-17T05:03:55;99443.91;;;19.47;100.00
5595;BME280;1003;48.002;7.788;2023-08-17T05:06:23;99453.91;;;19.52;100.00
5595;BME280;1003;48.002;7.788;2023-08-17T05:08:50;99474.31;;;19.52;100.00
5595;BME280;1003;48.002;7.788;2023-08-17T05:11:17;99484.25;;;19.58;100.00
5595;BME280;1003;48.002;7.788;2023-08-17T05:13:44;99483.41;;;19.59;100.00
5595;BME280;1003;48.002;7.788;2023-08-17T05:16:11;99485.91;;;19.60;100.00
5595;BME280;1003;48.002;7.788;2023-08-17T05:18:38;99490.63;;;19.70;100.00
5595;BME280;1003;48.002;7.788;2023-08-17T05:21:05;99492.91;;;19.76;100.00
5595;BME280;1003;48.002;7.788;2023-08-17T05:23:34;99494.34;;;19.81;100.00
5595;BME280;1003;48.002;7.788;2023-08-17T05:26:01;99489.06;;;19.86;100.00
5595;BME280;1003;48.002;7.788;2023-08-17T05:28:30;99496.84;;;19.83;100.00
5595;BME280;1003;48.002;7.788;2023-08-17T05:31:04;99496.44;;;19.92;100.00
5595;BME280;1003;48.002;7.788;2023-08-17T05:33:31;99496.44;;;19.92;100.00
5595;BME280;1003;48.002;7.788;2023-08-17T05:35:59;99492.72;;;19.99;100.00
5595;BME280;1003;48.002;7.788;2023-08-17T05:38:26;99500.88;;;20.07;100.00
5595;BME280;1003;48.002;7.788;2023-08-17T05:40:56;99508.53;;;20.07;100.00
5595;BME280;1003;48.002;7.788;2023-08-17T05:43:24;99493.00;;;20.12;100.00
5595;BME280;1003;48.002;7.788;2023-08-17T05:45:53;99500.47;;;20.16;100.00
5595;BME280;1003;48.002;7.788;2023-08-17T05:48:21;99496.25;;;20.15;100.00
5595;BME280;1003;48.002;7.788;2023-08-17T05:50:48;99498.94;;;20.12;100.00
5595;BME280;1003;48.002;7.788;2023-08-17T05:53:15;99496.34;;;20.14;100.00
5595;BME280;1003;48.002;7.788;2023-08-17T05:55:42;99496.53;;;20.09;100.00
5595;BME280;1003;48.002;7.788;2023-08-17T05:58:11;99483.41;;;20.17;100.00
5595;BME280;1003;48.002;7.788;2023-08-17T06:00:37;99487.50;;;20.21;100.00
5595;BME280;1003;48.002;7.788;2023-08-17T06:03:07;99479.13;;;20.17;100.00
5595;BME280;1003;48.002;7.788;2023-08-17T06:05:34;99466.78;;;20.27;100.00
5595;BME280;1003;48.002;7.788;2023-08-17T06:08:02;99465.56;;;20.36;100.00
5595;BME280;1003;48.002;7.788;2023-08-17T06:10:29;99461.19;;;20.38;100.00
5595;BME280;1003;48.002;7.788;2023-08-17T06:12:57;99451.13;;;20.54;100.00
5595;BME280;1003;48.002;7.788;2023-08-17T06:15:25;99438.19;;;20.76;100.00
5595;BME280;1003;48.002;7.788;2023-08-17T06:17:52;99421.28;;;20.73;100.00
5595;BME280;1003;48.002;7.788;2023-08-17T06:20:19;99405.75;;;20.78;100.00
5595;BME280;1003;48.002;7.788;2023-08-17T06:22:48;99393.31;;;20.87;100.00
5595;BME280;1003;48.002;7.788;2023-08-17T06:25:15;99382.56;;;20.98;100.00
5595;BME280;1003;48.002;7.788;2023-08-17T06:27:43;99364.09;;;21.10;100.00
5595;BME280;1003;48.002;7.788;2023-08-17T06:30:11;99338.06;;;21.37;100.00
5595;BME280;1003;48.002;7.788;2023-08-17T06:32:40;99312.91;;;21.45;100.00
5595;BME280;1003;48.002;7.788;2023-08-17T06:35:08;99294.03;;;21.47;100.00
5595;BME280;1003;48.002;7.788;2023-08-17T06:37:35;99267.44;;;21.50;100.00
5595;BME280;1003;48.002;7.788;2023-08-17T06:40:03;99231.72;;;21.64;100.00
5595;BME280;1003;48.002;7.788;2023-08-17T06:42:31;99223.22;;;21.80;100.00
5595;BME280;1003;48.002;7.788;2023-08-17T06:44:58;99203.72;;;22.23;100.00
5595;BME280;1003;48.002;7.788;2023-08-17T06:47:25;99201.19;;;22.51;100.00
5595;BME280;1003;48.002;7.788;2023-08-17T06:49:57;99203.13;;;22.62;100.00
5595;BME280;1003;48.002;7.788;2023-08-17T06:52:24;99226.03;;;22.94;100.00
5595;BME280;1003;48.002;7.788;2023-08-17T06:54:51;99231.97;;;22.94;100.00
5595;BME280;1003;48.002;7.788;2023-08-17T06:57:18;99221.06;;;22.62;100.00
5595;BME280;1003;48.002;7.788;2023-08-17T06:59:47;99229.59;;;22.33;100.00
5595;BME280;1003;48.002;7.788;2023-08-17T07:02:14;99155.97;;;22.36;100.00
5595;BME280;1003;48.002;7.788;2023-08-17T07:04:41;99157.63;;;22.37;100.00
5595;BME280;1003;48.002;7.788;2023-08-17T07:07:10;99165.75;;;22.44;100.00
5595;BME280;1003;48.002;7.788;2023-08-17T07:09:37;99171.19;;;22.39;100.00
5595;BME280;1003;48.002;7.788;2023-08-17T07:12:04;99169.41;;;22.25;100.00
5595;BME280;1003;48.002;7.788;2023-08-17T07:14:31;99123.13;;;22.14;100.00
5595;BME280;1003;48.002;7.788;2023-08-17T07:16:59;99098.44;;;22.27;100.00
5595;BME280;1003;48.002;7.788;2023-08-17T07:19:26;99105.69;;;22.35;100.00
5595;BME280;1003;48.002;7.788;2023-08-17T07:21:53;99111.25;;;22.27;100.00
5595;BME280;1003;48.002;7.788;2023-08-17T07:24:21;99125.09;;;22.09;100.00
5595;BME280;1003;48.002;7.788;2023-08-17T07:26:48;99125.53;;;22.17;100.00
5595;BME280;1003;48.002;7.788;2023-08-17T07:29:16;99119.91;;;22.11;100.00
5595;BME280;1003;48.002;7.788;2023-08-17T07:31:43;99117.94;;;22.00;100.00
5595;BME280;1003;48.002;7.788;2023-08-17T07:34:10;99120.03;;;22.23;100.00
5595;BME280;1003;48.002;7.788;2023-08-17T07:36:37;99126.44;;;22.31;100.00
5595;BME280;1003;48.002;7.788;2023-08-17T07:39:04;99129.28;;;22.40;100.00
5595;BME280;1003;48.002;7.788;2023-08-17T07:41:33;99133.00;;;22.49;100.00
5595;BME280;1003;48.002;7.788;2023-08-17T07:44:00;99136.78;;;22.29;100.00
5595;BME280;1003;48.002;7.788;2023-08-17T07:48:54;99133.75;;;22.37;100.00
5595;BME280;1003;48.002;7.788;2023-08-17T07:51:21;99137.31;;;22.48;100.00
5595;BME280;1003;48.002;7.788;2023-08-17T07:53:48;99145.66;;;22.66;100.00
5595;BME280;1003;48.002;7.788;2023-08-17T07:56:15;99150.41;;;22.72;100.00
5595;BME280;1003;48.002;7.788;2023-08-17T07:58:43;99160.19;;;22.80;100.00
5595;BME280;1003;48.002;7.788;2023-08-17T08:01:10;99176.41;;;22.66;100.00
5595;BME280;1003;48.002;7.788;2023-08-17T08:03:37;99182.53;;;22.64;100.00
5595;BME280;1003;48.002;7.788;2023-08-17T08:06:04;99183.53;;;22.61;100.00
5595;BME280;1003;48.002;7.788;2023-08-17T08:08:31;99186.75;;;22.50;100.00
5595;BME280;1003;48.002;7.788;2023-08-17T08:10:59;99180.38;;;22.27;100.00
5595;BME280;1003;48.002;7.788;2023-08-17T08:13:26;99183.50;;;22.18;100.00
5595;BME280;1003;48.002;7.788;2023-08-17T08:15:54;99177.38;;;22.05;100.00
5595;BME280;1003;48.002;7.788;2023-08-17T08:18:21;99159.53;;;22.19;100.00
5595;BME280;1003;48.002;7.788;2023-08-17T08:20:48;99162.13;;;22.34;100.00
5595;BME280;1003;48.002;7.788;2023-08-17T08:23:15;99169.72;;;22.35;100.00
5595;BME280;1003;48.002;7.788;2023-08-17T08:25:42;99167.69;;;22.40;100.00
5595;BME280;1003;48.002;7.788;2023-08-17T08:28:10;99164.66;;;22.48;100.00
5595;BME280;1003;48.002;7.788;2023-08-17T08:30:37;99169.19;;;22.44;100.00
5595;BME280;1003;48.002;7.788;2023-08-17T08:33:05;99168.78;;;22.36;100.00
5595;BME280;1003;48.002;7.788;2023-08-17T08:35:32;99164.97;;;22.58;100.00
5595;BME280;1003;48.002;7.788;2023-08-17T08:37:59;99157.16;;;22.59;100.00
5595;BME280;1003;48.002;7.788;2023-08-17T08:40:28;99162.69;;;22.39;100.00
5595;BME280;1003;48.002;7.788;2023-08-17T08:42:57;99166.06;;;22.39;100.00
5595;BME280;1003;48.002;7.788;2023-08-17T08:45:24;99164.78;;;22.61;100.00
5595;BME280;1003;48.002;7.788;2023-08-17T08:47:55;99171.47;;;22.77;100.00
5595;BME280;1003;48.002;7.788;2023-08-17T08:50:31;99164.88;;;22.73;100.00
5595;BME280;1003;48.002;7.788;2023-08-17T08:53:00;99166.34;;;22.77;100.00
5595;BME280;1003;48.002;7.788;2023-08-17T08:55:33;99171.50;;;23.19;100.00
5595;BME280;1003;48.002;7.788;2023-08-17T08:58:02;99190.22;;;23.48;100.00
5595;BME280;1003;48.002;7.788;2023-08-17T09:00:31;99208.31;;;23.59;100.00
5595;BME280;1003;48.002;7.788;2023-08-17T09:03:02;99213.63;;;23.70;100.00
5595;BME280;1003;48.002;7.788;2023-08-17T09:05:33;99225.34;;;23.74;100.00
5595;BME280;1003;48.002;7.788;2023-08-17T09:08:02;99233.50;;;23.94;100.00
5595;BME280;1003;48.002;7.788;2023-08-17T09:10:30;99249.56;;;24.10;100.00
5595;BME280;1003;48.002;7.788;2023-08-17T09:12:58;99271.97;;;24.73;100.00
5595;BME280;1003;48.002;7.788;2023-08-17T09:15:25;99289.03;;;25.00;100.00
5595;BME280;1003;48.002;7.788;2023-08-17T09:17:52;99357.88;;;25.34;100.00
5595;BME280;1003;48.002;7.788;2023-08-17T09:20:40;99331.13;;;25.37;100.00
5595;BME280;1003;48.002;7.788;2023-08-17T09:23:11;99328.22;;;25.42;100.00
5595;BME280;1003;48.002;7.788;2023-08-17T09:25:40;99361.19;;;25.11;100.00
5595;BME280;1003;48.002;7.788;2023-08-17T09:28:09;99375.16;;;25.07;100.00
5595;BME280;1003;48.002;7.788;2023-08-17T09:30:53;99370.94;;;25.44;100.00
5595;BME280;1003;48.002;7.788;2023-08-17T09:33:21;99386.47;;;25.55;100.00
5595;BME280;1003;48.002;7.788;2023-08-17T09:35:51;99413.19;;;26.28;100.00
5595;BME280;1003;48.002;7.788;2023-08-17T09:38:19;99444.03;;;26.77;100.00
5595;BME280;1003;48.002;7.788;2023-08-17T09:40:48;99450.28;;;26.86;100.00
5595;BME280;1003;48.002;7.788;2023-08-17T09:43:17;99453.03;;;26.72;100.00
5595;BME280;1003;48.002;7.788;2023-08-17T09:45:47;99454.50;;;26.63;100.00
5595;BME280;1003;48.002;7.788;2023-08-17T09:48:16;99452.75;;;26.03;100.00
5595;BME280;1003;48.002;7.788;2023-08-17T09:50:45;99455.13;;;26.06;100.00
5595;BME280;1003;48.002;7.788;2023-08-17T09:53:16;99462.16;;;25.91;100.00
5595;BME280;1003;48.002;7.788;2023-08-17T09:55:44;99405.81;;;25.86;100.00
5595;BME280;1003;48.002;7.788;2023-08-17T09:58:13;99456.50;;;25.86;100.00
5595;BME280;1003;48.002;7.788;2023-08-17T10:00:44;99451.47;;;25.84;100.00
5595;BME280;1003;48.002;7.788;2023-08-17T10:03:15;99450.06;;;26.04;100.00
5595;BME280;1003;48.002;7.788;2023-08-17T10:05:47;99443.06;;;26.06;100.00
5595;BME280;1003;48.002;7.788;2023-08-17T10:08:19;99438.66;;;25.96;100.00
5595;BME280;1003;48.002;7.788;2023-08-17T10:10:47;99445.06;;;25.77;100.00
5595;BME280;1003;48.002;7.788;2023-08-17T10:13:28;99434.13;;;25.61;100.00
5595;BME280;1003;48.002;7.788;2023-08-17T10:16:02;99395.59;;;25.72;100.00
5595;BME280;1003;48.002;7.788;2023-08-17T10:18:41;99399.63;;;25.89;100.00
5595;BME280;1003;48.002;7.788;2023-08-17T10:21:16;99395.81;;;26.18;100.00
5595;BME280;1003;48.002;7.788;2023-08-17T10:23:47;99394.88;;;25.96;100.00
5595;BME280;1003;48.002;7.788;2023-08-17T10:26:16;99393.16;;;26.07;100.00
5595;BME280;1003;48.002;7.788;2023-08-17T10:28:45;99388.44;;;26.25;100.00
5595;BME280;1003;48.002;7.788;2023-08-17T10:31:13;99385.06;;;26.25;100.00
5595;BME280;1003;48.002;7.788;2023-08-17T10:33:41;99380.59;;;26.15;100.00
5595;BME280;1003;48.002;7.788;2023-08-17T10:36:13;99381.09;;;26.45;100.00
5595;BME280;1003;48.002;7.788;2023-08-17T10:38:41;99374.78;;;26.49;100.00
5595;BME280;1003;48.002;7.788;2023-08-17T10:41:12;99364.56;;;26.82;100.00
5595;BME280;1003;48.002;7.788;2023-08-17T10:43:56;99355.09;;;27.05;100.00
5595;BME280;1003;48.002;7.788;2023-08-17T10:46:34;99351.97;;;27.13;100.00
5595;BME280;1003;48.002;7.788;2023-08-17T10:49:04;99350.25;;;27.01;100.00
5595;BME280;1003;48.002;7.788;2023-08-17T10:51:32;99345.69;;;27.04;100.00
5595;BME280;1003;48.002;7.788;2023-08-17T10:54:03;99334.25;;;27.31;100.00
5595;BME280;1003;48.002;7.788;2023-08-17T10:56:33;99331.16;;;27.59;100.00
5595;BME280;1003;48.002;7.788;2023-08-17T10:59:00;99350.16;;;27.69;100.00
5595;BME280;1003;48.002;7.788;2023-08-17T11:01:36;99344.19;;;27.58;100.00
5595;BME280;1003;48.002;7.788;2023-08-17T11:04:15;99331.50;;;27.55;100.00
5595;BME280;1003;48.002;7.788;2023-08-17T11:06:44;99309.09;;;27.55;100.00
5595;BME280;1003;48.002;7.788;2023-08-17T11:09:11;99300.97;;;27.71;100.00
5595;BME280;1003;48.002;7.788;2023-08-17T11:11:39;99283.72;;;28.04;100.00
5595;BME280;1003;48.002;7.788;2023-08-17T11:14:06;99268.09;;;28.37;100.00
5595;BME280;1003;48.002;7.788;2023-08-17T11:16:33;99258.34;;;28.71;100.00
5595;BME280;1003;48.002;7.788;2023-08-17T11:19:01;99244.88;;;28.77;100.00
5595;BME280;1003;48.002;7.788;2023-08-17T11:21:28;99235.81;;;28.93;100.00
5595;BME280;1003;48.002;7.788;2023-08-17T11:23:59;99225.31;;;28.85;100.00
5595;BME280;1003;48.002;7.788;2023-08-17T11:26:27;99223.56;;;28.55;100.00
5595;BME280;1003;48.002;7.788;2023-08-17T11:28:56;99217.88;;;28.19;100.00
5595;BME280;1003;48.002;7.788;2023-08-17T11:31:23;99218.88;;;28.28;100.00
5595;BME280;1003;48.002;7.788;2023-08-17T11:33:52;99210.69;;;28.43;100.00
5595;BME280;1003;48.002;7.788;2023-08-17T11:36:19;99206.31;;;28.65;100.00
5595;BME280;1003;48.002;7.788;2023-08-17T11:38:47;99209.38;;;28.89;100.00
5595;BME280;1003;48.002;7.788;2023-08-17T11:41:14;99197.16;;;28.91;100.00
5595;BME280;1003;48.002;7.788;2023-08-17T11:43:43;99196.78;;;28.96;100.00
5595;BME280;1003;48.002;7.788;2023-08-17T11:46:12;99192.31;;;28.77;100.00
5595;BME280;1003;48.002;7.788;2023-08-17T11:48:39;99193.19;;;28.87;100.00
5595;BME280;1003;48.002;7.788;2023-08-17T11:51:06;99175.50;;;28.92;100.00
5595;BME280;1003;48.002;7.788;2023-08-17T11:53:35;99173.59;;;28.94;100.00
5595;BME280;1003;48.002;7.788;2023-08-17T11:56:02;99169.16;;;29.06;100.00
5595;BME280;1003;48.002;7.788;2023-08-17T11:58:42;99157.97;;;29.06;100.00
5595;BME280;1003;48.002;7.788;2023-08-17T12:01:12;99157.22;;;28.84;100.00
5595;BME280;1003;48.002;7.788;2023-08-17T12:03:41;99145.25;;;28.93;100.00
5595;BME280;1003;48.002;7.788;2023-08-17T12:06:09;99140.41;;;29.09;100.00
5595;BME280;1003;48.002;7.788;2023-08-17T12:08:38;99143.13;;;29.08;100.00
5595;BME280;1003;48.002;7.788;2023-08-17T12:11:06;99142.44;;;28.96;100.00
5595;BME280;1003;48.002;7.788;2023-08-17T12:13:34;99140.00;;;29.04;100.00
5595;BME280;1003;48.002;7.788;2023-08-17T12:16:02;99142.19;;;29.38;100.00
5595;BME280;1003;48.002;7.788;2023-08-17T12:18:34;99134.31;;;29.68;100.00
5595;BME280;1003;48.002;7.788;2023-08-17T12:21:01;99130.06;;;29.48;100.00
5595;BME280;1003;48.002;7.788;2023-08-17T12:23:28;99138.25;;;29.72;100.00
5595;BME280;1003;48.002;7.788;2023-08-17T12:25:55;99141.50;;;29.94;100.00
5595;BME280;1003;48.002;7.788;2023-08-17T12:28:23;99106.78;;;29.67;100.00
5595;BME280;1003;48.002;7.788;2023-08-17T12:30:59;99113.56;;;29.78;100.00
5595;BME280;1003;48.002;7.788;2023-08-17T12:33:27;99109.09;;;30.07;100.00
5595;BME280;1003;48.002;7.788;2023-08-17T12:35:55;99104.72;;;30.27;100.00
5595;BME280;1003;48.002;7.788;2023-08-17T12:38:24;99110.75;;;30.46;100.00
5595;BME280;1003;48.002;7.788;2023-08-17T12:40:51;99100.19;;;30.29;100.00
5595;BME280;1003;48.002;7.788;2023-08-17T12:43:18;99101.78;;;30.40;100.00
5595;BME280;1003;48.002;7.788;2023-08-17T12:45:45;99105.44;;;30.47;100.00
5595;BME280;1003;48.002;7.788;2023-08-17T12:48:12;99105.84;;;30.80;100.00
5595;BME280;1003;48.002;7.788;2023-08-17T12:50:39;99103.69;;;30.93;100.00
5595;BME280;1003;48.002;7.788;2023-08-17T12:53:08;99104.59;;;31.20;100.00
5595;BME280;1003;48.002;7.788;2023-08-17T12:55:35;99110.88;;;31.53;100.00
5595;BME280;1003;48.002;7.788;2023-08-17T12:58:03;99109.00;;;31.81;100.00
5595;BME280;1003;48.002;7.788;2023-08-17T13:00:30;99104.63;;;32.16;100.00
5595;BME280;1003;48.002;7.788;2023-08-17T13:02:57;99112.09;;;32.45;100.00
5595;BME280;1003;48.002;7.788;2023-08-17T13:05:24;99108.91;;;32.51;100.00
5595;BME280;1003;48.002;7.788;2023-08-17T13:07:51;99107.59;;;32.55;100.00
5595;BME280;1003;48.002;7.788;2023-08-17T13:10:20;99099.72;;;32.04;100.00
5595;BME280;1003;48.002;7.788;2023-08-17T13:12:47;99111.66;;;32.23;100.00
5595;BME280;1003;48.002;7.788;2023-08-17T13:15:14;99099.53;;;31.98;100.00
5595;BME280;1003;48.002;7.788;2023-08-17T13:17:41;99102.84;;;31.82;100.00